createdAt,value
2023-03-26T00:02:41.735Z,1.50
2023-03-26T00:07:43.227Z,1.95
2023-03-26T00:12:44.670Z,2.05
2023-03-26T00:17:46.554Z,2.20
2023-03-26T00:22:48.058Z,2.38
2023-03-26T00:27:50.203Z,2.55
2023-03-26T00:32:53.624Z,1.40
2023-03-26T00:37:55.558Z,1.85
2023-03-26T00:42:57.021Z,1.83
2023-03-26T00:47:58.499Z,1.75
2023-03-26T00:52:59.966Z,2.03
2023-03-26T00:58:01.692Z,1.85
2023-03-26T01:03:04.402Z,2.05
2023-03-26T01:08:29.072Z,1.00
2023-03-26T01:13:44.604Z,2.00
2023-03-26T01:30:54.764Z,1.38
2023-03-26T01:36:42.842Z,1.55
2023-03-26T01:54:58.322Z,2.67
2023-03-26T02:00:22.478Z,2.25
2023-03-26T02:05:32.073Z,2.63
2023-03-26T02:10:35.912Z,1.45
2023-03-26T02:15:37.553Z,2.15
2023-03-26T02:20:39.015Z,1.80
2023-03-26T02:25:41.951Z,1.40
2023-03-26T02:30:45.589Z,2.05
2023-03-26T02:35:47.109Z,1.92
2023-03-26T02:40:48.594Z,1.65
2023-03-26T02:45:50.146Z,2.22
2023-03-26T02:50:54.489Z,2.17
2023-03-26T02:55:57.120Z,1.98
2023-03-26T03:00:58.761Z,2.15
2023-03-26T03:06:00.254Z,1.25
2023-03-26T03:11:15.603Z,2.17
2023-03-26T03:16:17.185Z,2.55
2023-03-26T03:21:18.671Z,2.35
2023-03-26T03:26:21.825Z,2.80
2023-03-26T03:31:24.688Z,2.55
2023-03-26T03:36:27.931Z,2.17
2023-03-26T03:41:29.653Z,2.80
2023-03-26T03:46:31.125Z,2.65
2023-03-26T03:51:32.695Z,3.13
2023-03-26T03:56:34.187Z,2.33
2023-03-26T04:01:35.715Z,3.22
2023-03-26T04:06:37.161Z,2.33
2023-03-26T04:11:38.625Z,2.53
2023-03-26T04:16:40.277Z,1.63
2023-03-26T04:21:42.744Z,2.15
2023-03-26T04:26:44.208Z,2.13
2023-03-26T04:31:47.054Z,2.75
2023-03-26T04:36:48.693Z,2.33
2023-03-26T04:41:50.203Z,2.35
2023-03-26T04:46:55.107Z,2.60
2023-03-26T04:51:56.688Z,2.15
2023-03-26T04:56:59.759Z,2.28
2023-03-26T05:02:02.095Z,2.60
2023-03-26T05:07:03.588Z,2.38
2023-03-26T05:12:07.526Z,2.10
2023-03-26T05:17:10.942Z,2.50
2023-03-26T05:22:12.526Z,2.00
2023-03-26T05:27:16.771Z,2.17
2023-03-26T05:32:18.232Z,2.67
2023-03-26T05:37:20.368Z,2.45
2023-03-26T05:42:21.909Z,1.92
2023-03-26T05:47:23.432Z,2.30
2023-03-26T05:52:25.086Z,2.08
2023-03-26T05:57:29.438Z,1.90
2023-03-26T06:02:31.570Z,1.90
2023-03-26T06:07:34.088Z,1.73
2023-03-26T06:12:36.867Z,1.70
2023-03-26T06:17:38.366Z,3.15
2023-03-26T06:22:39.835Z,1.48
2023-03-26T06:27:41.330Z,1.90
2023-03-26T06:32:42.866Z,2.15
2023-03-26T06:37:45.386Z,1.55
2023-03-26T06:43:08.557Z,2.15
2023-03-26T06:48:08.333Z,1.58
2023-03-26T06:53:10.539Z,1.95
2023-03-26T06:58:12.446Z,2.72
2023-03-26T07:03:14.004Z,2.42
2023-03-26T07:08:15.930Z,1.77
2023-03-26T07:13:17.388Z,2.22
2023-03-26T07:18:18.832Z,2.03
2023-03-26T07:23:21.245Z,2.00
2023-03-26T07:28:25.829Z,1.55
2023-03-26T07:33:47.980Z,1.80
2023-03-26T07:39:05.069Z,1.95
2023-03-26T07:44:21.923Z,2.55
2023-03-26T07:49:23.606Z,2.33
2023-03-26T07:54:25.469Z,1.67
2023-03-26T07:59:34.152Z,1.70
2023-03-26T08:05:30.884Z,2.00
2023-03-26T08:11:03.665Z,1.63
2023-03-26T08:16:36.800Z,2.47
2023-03-26T08:21:42.095Z,2.03
2023-03-26T08:26:55.120Z,1.75
2023-03-26T08:31:57.458Z,1.90
2023-03-26T08:36:58.972Z,1.67
2023-03-26T08:42:19.605Z,1.70
2023-03-26T08:47:55.751Z,4.25
2023-03-26T08:53:20.133Z,6.00
2023-03-26T08:58:40.377Z,7.88
2023-03-26T09:04:17.699Z,4.82
2023-03-26T09:09:42.630Z,5.38
2023-03-26T09:15:08.484Z,6.90
2023-03-26T09:20:31.823Z,7.20
2023-03-26T09:25:56.718Z,4.85
2023-03-26T09:31:16.806Z,7.43
2023-03-26T09:36:35.902Z,2.97
2023-03-26T09:42:05.015Z,5.18
2023-03-26T09:47:48.267Z,9.38
2023-03-26T09:52:57.123Z,2.92
2023-03-26T09:58:14.025Z,2.33
2023-03-26T10:03:33.965Z,2.38
2023-03-26T10:08:39.195Z,2.60
2023-03-26T10:14:04.100Z,2.10
2023-03-26T10:19:24.368Z,1.52
2023-03-26T10:25:06.332Z,2.08
2023-03-26T10:30:26.432Z,1.73
2023-03-26T10:35:55.859Z,2.25
2023-03-26T10:41:08.987Z,1.25
2023-03-26T10:46:35.521Z,1.85
2023-03-26T10:51:54.725Z,1.55
2023-03-26T10:56:56.480Z,1.45
2023-03-26T11:02:19.585Z,2.10
2023-03-26T11:07:39.335Z,1.70
2023-03-26T11:12:46.450Z,3.03
2023-03-26T11:17:50.794Z,4.25
2023-03-26T11:23:01.175Z,2.05
2023-03-26T11:28:16.376Z,2.05
2023-03-26T11:33:26.690Z,2.10
2023-03-26T11:38:40.148Z,1.70
2023-03-26T11:43:41.620Z,2.47
2023-03-26T11:48:58.018Z,1.80
2023-03-26T11:54:03.080Z,2.15
2023-03-26T11:59:13.852Z,2.30
2023-03-26T12:04:15.762Z,2.05
2023-03-26T12:09:17.898Z,2.55
2023-03-26T12:14:22.057Z,1.80
2023-03-26T12:19:24.611Z,1.88
2023-03-26T12:24:29.866Z,1.80
2023-03-26T12:29:34.163Z,2.53
2023-03-26T12:34:36.237Z,2.53
2023-03-26T12:40:08.705Z,1.92
2023-03-26T12:45:01.382Z,2.00
2023-03-26T12:50:03.685Z,1.30
2023-03-26T12:55:20.538Z,1.55
2023-03-26T13:00:42.997Z,1.60
2023-03-26T13:05:55.766Z,1.55
2023-03-26T13:11:05.484Z,2.88
2023-03-26T13:16:27.513Z,3.95
2023-03-26T13:26:51.941Z,1.73
2023-03-26T13:32:10.855Z,2.30
2023-03-26T13:37:18.163Z,1.85
2023-03-26T13:42:41.896Z,1.40
2023-03-26T13:47:46.298Z,1.88
2023-03-26T13:53:09.532Z,1.67
2023-03-26T13:58:14.632Z,1.70
2023-03-26T14:03:20.988Z,1.60
2023-03-26T14:08:32.719Z,1.25
2023-03-26T14:13:47.459Z,1.83
2023-03-26T14:19:10.781Z,2.65
2023-03-26T14:24:34.225Z,3.00
2023-03-26T14:29:56.263Z,2.05
2023-03-26T14:35:17.182Z,3.15
2023-03-26T14:40:25.173Z,1.40
2023-03-26T14:45:48.006Z,2.47
2023-03-26T14:50:58.743Z,1.45
2023-03-26T14:56:21.214Z,1.92
2023-03-26T15:01:26.670Z,1.73
2023-03-26T15:06:46.677Z,1.90
2023-03-26T15:12:12.183Z,2.30
2023-03-26T15:17:36.627Z,1.75
2023-03-26T15:23:21.000Z,2.10
2023-03-26T15:28:37.269Z,6.38
2023-03-26T15:33:51.518Z,3.47
2023-03-26T15:39:17.664Z,1.85
2023-03-26T15:44:50.886Z,1.70
2023-03-26T15:50:26.127Z,1.58
2023-03-26T15:55:36.561Z,1.65
2023-03-26T16:01:22.821Z,1.42
2023-03-26T16:06:48.164Z,1.90
2023-03-26T16:12:04.129Z,1.55
2023-03-26T16:22:14.498Z,2.63
2023-03-26T16:27:16.081Z,1.48
2023-03-26T16:32:41.072Z,1.88
2023-03-26T16:37:51.629Z,2.28
2023-03-26T16:43:15.184Z,1.88
2023-03-26T16:48:36.827Z,1.42
2023-03-26T16:53:46.432Z,2.55
2023-03-26T16:58:56.042Z,2.45
2023-03-26T17:09:21.949Z,1.63
2023-03-26T17:14:39.746Z,1.40
2023-03-26T17:20:14.491Z,1.80
2023-03-26T17:25:34.421Z,1.55
2023-03-26T17:30:44.620Z,1.30
2023-03-26T17:35:47.106Z,1.63
2023-03-26T17:40:58.743Z,1.45
2023-03-26T17:46:02.607Z,2.08
2023-03-26T17:51:31.633Z,1.73
2023-03-26T17:56:33.271Z,1.08
2023-03-26T18:01:35.995Z,1.40
2023-03-26T18:06:54.211Z,1.48
2023-03-26T18:12:19.009Z,2.03
2023-03-26T18:17:20.557Z,1.27
2023-03-26T18:22:26.548Z,1.63
2023-03-26T18:27:36.812Z,1.10
2023-03-26T18:32:41.023Z,1.70
2023-03-26T18:37:44.198Z,1.48
2023-03-26T18:42:55.011Z,1.88
2023-03-26T18:47:58.182Z,2.13
2023-03-26T18:58:18.909Z,1.17
2023-03-26T19:03:21.902Z,1.63
2023-03-26T19:08:23.902Z,1.90
2023-03-26T19:13:25.417Z,0.95
2023-03-26T19:18:26.965Z,1.42
2023-03-26T19:23:32.172Z,1.92
2023-03-26T19:28:49.225Z,1.88
2023-03-26T19:34:04.039Z,1.52
2023-03-26T19:39:11.965Z,1.20
2023-03-26T19:44:27.167Z,1.95
2023-03-26T19:49:31.953Z,2.05
2023-03-26T19:55:04.982Z,2.17
2023-03-26T20:00:18.963Z,1.65
2023-03-26T20:05:25.980Z,2.47
2023-03-26T20:10:27.568Z,2.25
2023-03-26T20:15:30.966Z,1.25
2023-03-26T20:20:34.178Z,1.60
2023-03-26T20:25:35.667Z,1.13
2023-03-26T20:30:38.031Z,2.30
2023-03-26T20:35:39.717Z,1.55
2023-03-26T20:40:41.196Z,2.00
2023-03-26T20:45:42.665Z,1.60
2023-03-26T20:51:01.600Z,1.88
2023-03-26T20:56:03.488Z,1.42
2023-03-26T21:01:05.640Z,1.95
2023-03-26T21:06:14.910Z,1.90
2023-03-26T21:11:26.650Z,1.27
2023-03-26T21:16:28.848Z,1.23
2023-03-26T21:21:47.534Z,2.83
2023-03-26T21:26:50.600Z,1.63
2023-03-26T21:31:54.039Z,1.83
2023-03-26T21:36:55.969Z,1.90
2023-03-26T21:42:05.249Z,1.42
2023-03-26T21:47:09.768Z,1.70
2023-03-26T21:52:15.396Z,1.08
2023-03-26T21:57:17.644Z,1.85
2023-03-26T22:02:29.012Z,1.58
2023-03-26T22:07:38.556Z,1.77
2023-03-26T22:12:40.003Z,1.05
2023-03-26T22:17:41.867Z,1.40
2023-03-26T22:22:48.769Z,1.30
2023-03-26T22:27:50.703Z,1.30
2023-03-26T22:32:52.207Z,1.25
2023-03-26T22:38:00.777Z,1.20
2023-03-26T22:43:02.777Z,1.90
2023-03-26T22:48:04.748Z,2.15
2023-03-26T22:53:06.487Z,1.17
2023-03-26T22:58:08.049Z,1.08
2023-03-26T23:03:09.538Z,1.30
2023-03-26T23:08:11.675Z,1.05
2023-03-26T23:13:13.147Z,1.10
2023-03-26T23:18:14.614Z,0.98
2023-03-26T23:23:16.087Z,1.48
2023-03-26T23:28:17.854Z,1.10
2023-03-26T23:33:20.464Z,2.33
2023-03-26T23:38:22.252Z,1.20
2023-03-26T23:43:24.148Z,1.35
2023-03-26T23:48:25.819Z,1.52
2023-03-26T23:53:28.986Z,1.80
2023-03-26T23:58:30.651Z,1.45
